createdAt,value
2023-02-03T00:00:17.141Z,2.97
2023-02-03T00:02:43.900Z,4.15
2023-02-03T00:05:10.447Z,3.03
2023-02-03T00:07:39.343Z,3.67
2023-02-03T00:10:07.453Z,2.95
2023-02-03T00:12:34.825Z,3.15
2023-02-03T00:15:01.363Z,2.72
2023-02-03T00:17:30.849Z,2.33
2023-02-03T00:19:57.422Z,2.70
2023-02-03T00:22:24.052Z,2.67
2023-02-03T00:24:50.691Z,2.38
2023-02-03T00:27:17.390Z,2.45
2023-02-03T00:29:43.883Z,2.53
2023-02-03T00:32:10.609Z,2.75
2023-02-03T00:34:37.344Z,2.72
2023-02-03T00:37:04.002Z,2.40
2023-02-03T00:39:30.938Z,2.67
2023-02-03T00:41:57.583Z,2.67
2023-02-03T00:44:24.226Z,2.78
2023-02-03T00:46:52.542Z,2.60
2023-02-03T00:49:19.186Z,2.10
2023-02-03T00:51:46.088Z,2.50
2023-02-03T00:54:14.190Z,2.63
2023-02-03T00:56:41.324Z,2.30
2023-02-03T00:59:11.006Z,2.50
2023-02-03T01:01:37.615Z,2.00
2023-02-03T01:04:04.397Z,2.72
2023-02-03T01:06:33.256Z,2.05
2023-02-03T01:09:03.251Z,2.38
2023-02-03T01:11:29.905Z,2.30
2023-02-03T01:13:56.881Z,2.55
2023-02-03T01:16:25.634Z,2.60
2023-02-03T01:18:53.117Z,2.00
2023-02-03T01:21:24.119Z,2.33
2023-02-03T01:23:52.114Z,2.40
2023-02-03T01:26:20.936Z,2.75
2023-02-03T01:28:52.963Z,3.15
2023-02-03T01:31:23.938Z,2.60
2023-02-03T01:33:52.689Z,1.95
2023-02-03T01:36:19.640Z,2.35
2023-02-03T01:38:46.870Z,2.22
2023-02-03T01:41:21.303Z,3.30
2023-02-03T01:43:50.670Z,2.40
2023-02-03T01:46:41.818Z,2.50
2023-02-03T01:49:12.971Z,2.10
2023-02-03T01:51:42.130Z,2.50
2023-02-03T01:54:14.940Z,2.80
2023-02-03T01:56:47.153Z,2.15
2023-02-03T01:59:19.882Z,2.08
2023-02-03T02:01:47.538Z,2.25
2023-02-03T02:04:14.832Z,2.10
2023-02-03T02:06:41.689Z,2.15
2023-02-03T02:09:12.532Z,2.25
2023-02-03T02:11:42.437Z,2.63
2023-02-03T02:14:09.120Z,2.00
2023-02-03T02:16:38.589Z,2.30
2023-02-03T02:19:08.055Z,2.22
2023-02-03T02:22:06.377Z,2.10
2023-02-03T02:25:16.138Z,1.90
2023-02-03T02:28:14.038Z,2.08
2023-02-03T02:31:06.014Z,2.17
2023-02-03T02:33:43.099Z,1.98
2023-02-03T02:36:52.373Z,1.83
2023-02-03T02:39:46.141Z,1.75
2023-02-03T02:42:50.922Z,1.83
2023-02-03T02:45:26.394Z,1.83
2023-02-03T02:48:04.912Z,1.77
2023-02-03T02:50:37.352Z,1.50
2023-02-03T02:53:06.353Z,1.55
2023-02-03T02:55:37.384Z,2.00
2023-02-03T02:58:10.743Z,1.50
2023-02-03T03:00:39.173Z,2.10
2023-02-03T03:03:20.814Z,1.40
2023-02-03T03:05:57.967Z,1.80
2023-02-03T03:08:35.206Z,2.10
2023-02-03T03:11:03.239Z,1.80
2023-02-03T03:13:34.979Z,1.80
2023-02-03T03:16:07.656Z,1.88
2023-02-03T03:18:46.922Z,1.37
2023-02-03T03:21:27.989Z,1.65
2023-02-03T03:23:57.524Z,2.08
2023-02-03T03:26:46.040Z,1.85
2023-02-03T03:29:29.182Z,1.42
2023-02-03T03:31:57.023Z,1.80
2023-02-03T03:34:24.135Z,1.58
2023-02-03T03:36:56.575Z,1.40
2023-02-03T03:39:32.891Z,1.52
2023-02-03T03:42:32.076Z,1.35
2023-02-03T03:45:10.992Z,1.50
2023-02-03T03:47:40.874Z,1.45
2023-02-03T03:50:12.311Z,2.08
2023-02-03T03:52:40.509Z,1.90
2023-02-03T03:55:10.678Z,1.40
2023-02-03T03:57:42.013Z,1.42
2023-02-03T04:00:14.221Z,1.50
2023-02-03T04:02:46.499Z,1.50
2023-02-03T04:05:14.015Z,1.48
2023-02-03T04:07:46.008Z,1.17
2023-02-03T04:10:36.806Z,1.70
2023-02-03T04:13:04.127Z,1.83
2023-02-03T04:15:31.698Z,1.63
2023-02-03T04:17:58.950Z,1.45
2023-02-03T04:20:28.900Z,1.50
2023-02-03T04:22:56.950Z,1.65
2023-02-03T04:25:23.864Z,1.30
2023-02-03T04:27:50.839Z,1.30
2023-02-03T04:30:21.077Z,1.42
2023-02-03T04:32:48.546Z,1.08
2023-02-03T04:35:15.808Z,1.23
2023-02-03T04:37:44.350Z,1.02
2023-02-03T04:40:11.804Z,1.33
2023-02-03T04:42:39.436Z,1.10
2023-02-03T04:45:07.928Z,1.17
2023-02-03T04:47:34.789Z,1.25
2023-02-03T04:50:01.514Z,1.10
2023-02-03T04:52:28.669Z,1.20
2023-02-03T04:54:55.361Z,1.60
2023-02-03T04:57:22.104Z,1.52
2023-02-03T04:59:48.660Z,1.10
2023-02-03T05:02:15.365Z,1.10
2023-02-03T05:04:42.151Z,1.10
2023-02-03T05:07:09.879Z,1.10
2023-02-03T05:09:36.598Z,1.20
2023-02-03T05:12:03.492Z,1.58
2023-02-03T05:14:30.062Z,1.10
2023-02-03T05:16:57.056Z,1.40
2023-02-03T05:19:23.664Z,1.10
2023-02-03T05:21:50.724Z,1.17
2023-02-03T05:24:17.527Z,1.50
2023-02-03T05:26:44.249Z,3.92
2023-02-03T05:29:11.964Z,1.58
2023-02-03T05:31:38.676Z,1.52
2023-02-03T05:34:05.527Z,1.00
2023-02-03T05:36:32.337Z,1.10
2023-02-03T05:38:59.238Z,1.20
2023-02-03T05:41:44.887Z,1.20
2023-02-03T05:44:11.577Z,1.42
2023-02-03T05:46:38.222Z,1.30
2023-02-03T05:49:05.012Z,1.45
2023-02-03T05:51:31.734Z,1.20
2023-02-03T05:53:58.966Z,1.40
2023-02-03T05:56:26.363Z,1.20
2023-02-03T05:58:53.563Z,1.05
2023-02-03T06:01:21.125Z,1.60
2023-02-03T06:03:51.764Z,1.15
2023-02-03T06:06:18.627Z,1.73
2023-02-03T06:08:45.403Z,1.23
2023-02-03T06:11:13.536Z,1.10
2023-02-03T06:13:40.251Z,1.67
2023-02-03T06:16:07.440Z,1.40
2023-02-03T06:18:37.033Z,1.33
2023-02-03T06:21:03.711Z,1.25
2023-02-03T06:23:31.523Z,1.20
2023-02-03T06:26:00.285Z,1.48
2023-02-03T06:28:27.717Z,1.40
2023-02-03T06:30:54.441Z,1.55
2023-02-03T06:33:21.541Z,1.40
2023-02-03T06:35:48.099Z,1.60
2023-02-03T06:38:14.713Z,1.40
2023-02-03T06:40:41.313Z,1.60
2023-02-03T06:43:09.251Z,1.38
2023-02-03T06:45:36.036Z,1.38
2023-02-03T06:48:02.761Z,1.52
2023-02-03T06:50:30.038Z,1.50
2023-02-03T06:52:56.904Z,1.50
2023-02-03T06:55:23.737Z,1.30
2023-02-03T06:57:50.669Z,1.50
2023-02-03T07:00:19.675Z,1.60
2023-02-03T07:02:52.941Z,1.35
2023-02-03T07:05:19.919Z,1.45
2023-02-03T07:07:46.862Z,1.40
2023-02-03T07:10:13.574Z,1.75
2023-02-03T07:12:40.305Z,1.67
2023-02-03T07:15:07.506Z,1.50
2023-02-03T07:17:35.707Z,1.80
2023-02-03T07:20:04.585Z,1.42
2023-02-03T07:22:31.171Z,1.45
2023-02-03T07:24:57.865Z,1.33
2023-02-03T07:27:25.304Z,1.95
2023-02-03T07:29:52.098Z,1.65
2023-02-03T07:32:18.758Z,2.00
2023-02-03T07:34:45.486Z,1.75
2023-02-03T07:37:13.195Z,1.45
2023-02-03T07:39:39.921Z,1.77
2023-02-03T07:42:06.656Z,1.65
2023-02-03T07:44:44.101Z,1.77
2023-02-03T07:47:21.420Z,1.63
2023-02-03T07:49:48.191Z,1.80
2023-02-03T07:52:15.340Z,1.40
2023-02-03T07:54:45.340Z,1.50
2023-02-03T07:57:12.610Z,1.35
2023-02-03T07:59:39.639Z,1.92
2023-02-03T08:02:06.237Z,1.45
2023-02-03T08:04:37.713Z,1.50
2023-02-03T08:07:05.083Z,1.88
2023-02-03T08:09:31.642Z,1.67
2023-02-03T08:11:59.007Z,1.80
2023-02-03T08:14:25.649Z,1.88
2023-02-03T08:16:52.359Z,1.83
2023-02-03T08:19:19.005Z,1.85
2023-02-03T08:21:46.094Z,1.83
2023-02-03T08:24:12.701Z,2.15
2023-02-03T08:26:39.845Z,1.40
2023-02-03T08:29:07.232Z,2.00
2023-02-03T08:31:37.192Z,1.50
2023-02-03T08:34:03.906Z,2.60
2023-02-03T08:36:30.514Z,1.90
2023-02-03T08:38:57.173Z,1.50
2023-02-03T08:41:23.857Z,1.70
2023-02-03T08:43:50.907Z,1.73
2023-02-03T08:46:18.958Z,2.25
2023-02-03T08:48:46.028Z,2.17
2023-02-03T08:51:17.207Z,1.70
2023-02-03T08:53:44.051Z,2.67
2023-02-03T08:56:12.282Z,1.90
2023-02-03T08:58:39.763Z,2.15
2023-02-03T09:01:16.084Z,1.77
2023-02-03T09:03:43.113Z,1.95
2023-02-03T09:06:13.000Z,1.90
2023-02-03T09:08:39.890Z,2.67
2023-02-03T09:11:14.721Z,1.90
2023-02-03T09:13:48.073Z,2.00
2023-02-03T09:16:19.572Z,1.85
2023-02-03T09:18:46.748Z,2.22
2023-02-03T09:21:31.698Z,2.30
2023-02-03T09:24:03.560Z,2.35
2023-02-03T09:26:30.312Z,2.05
2023-02-03T09:28:56.947Z,2.83
2023-02-03T09:31:23.722Z,1.83
2023-02-03T09:33:50.441Z,2.28
2023-02-03T09:36:17.073Z,2.42
2023-02-03T09:38:43.707Z,2.15
2023-02-03T09:41:11.939Z,2.03
2023-02-03T09:43:57.875Z,2.40
2023-02-03T09:46:38.143Z,2.33
2023-02-03T09:49:24.025Z,2.80
2023-02-03T09:51:56.822Z,2.38
2023-02-03T09:54:47.201Z,2.40
2023-02-03T09:57:27.170Z,2.28
2023-02-03T09:59:57.086Z,1.92
2023-02-03T10:03:00.862Z,2.65
2023-02-03T10:05:49.758Z,1.83
2023-02-03T10:08:25.391Z,1.75
2023-02-03T10:11:22.431Z,1.70
2023-02-03T10:14:27.218Z,2.42
2023-02-03T10:17:10.169Z,2.28
2023-02-03T10:20:09.235Z,2.13
2023-02-03T10:22:48.685Z,2.78
2023-02-03T10:25:41.470Z,1.95
2023-02-03T10:28:18.591Z,2.58
2023-02-03T10:30:54.049Z,2.30
2023-02-03T10:33:22.185Z,1.70
2023-02-03T10:36:04.525Z,2.38
2023-02-03T10:39:07.371Z,1.80
2023-02-03T10:41:34.532Z,1.73
2023-02-03T10:44:05.357Z,2.42
2023-02-03T10:46:39.289Z,2.85
2023-02-03T10:49:05.998Z,2.35
2023-02-03T10:51:49.747Z,2.10
2023-02-03T10:54:34.653Z,1.90
2023-02-03T10:57:05.996Z,2.33
2023-02-03T10:59:36.147Z,2.67
2023-02-03T11:02:20.816Z,1.90
2023-02-03T11:04:49.091Z,2.55
2023-02-03T11:07:42.088Z,2.13
2023-02-03T11:10:40.910Z,2.80
2023-02-03T11:13:21.484Z,2.20
2023-02-03T11:16:14.416Z,2.15
2023-02-03T11:18:57.720Z,2.00
2023-02-03T11:21:32.554Z,2.08
2023-02-03T11:24:22.566Z,2.10
2023-02-03T11:26:59.405Z,1.90
2023-02-03T11:29:31.915Z,2.42
2023-02-03T11:32:01.909Z,1.73
2023-02-03T11:34:30.243Z,2.42
2023-02-03T11:36:57.462Z,2.80
2023-02-03T11:39:27.811Z,1.52
2023-02-03T11:41:55.051Z,1.75
2023-02-03T11:44:31.392Z,2.85
2023-02-03T11:47:07.488Z,1.85
2023-02-03T11:49:49.679Z,2.63
2023-02-03T11:52:45.044Z,1.95
2023-02-03T11:55:57.466Z,1.60
2023-02-03T11:58:48.607Z,2.38
2023-02-03T12:01:37.272Z,1.65
2023-02-03T12:04:28.302Z,2.70
2023-02-03T12:07:07.345Z,2.35
2023-02-03T12:09:55.824Z,2.10
2023-02-03T12:12:25.398Z,2.63
2023-02-03T12:15:25.018Z,2.05
2023-02-03T12:18:02.292Z,1.65
2023-02-03T12:20:56.284Z,2.60
2023-02-03T12:23:47.791Z,2.10
2023-02-03T12:26:25.051Z,2.13
2023-02-03T12:29:15.794Z,2.33
2023-02-03T12:32:06.800Z,2.83
2023-02-03T12:34:43.176Z,1.77
2023-02-03T12:37:19.849Z,1.98
2023-02-03T12:39:53.398Z,1.75
2023-02-03T12:42:37.958Z,1.90
2023-02-03T12:45:31.011Z,2.10
2023-02-03T12:48:12.803Z,2.25
2023-02-03T12:50:48.536Z,1.60
2023-02-03T12:53:31.027Z,1.27
2023-02-03T12:56:10.847Z,1.90
2023-02-03T12:58:56.806Z,1.83
2023-02-03T13:01:46.199Z,1.77
2023-02-03T13:04:26.216Z,1.83
2023-02-03T13:07:17.437Z,2.20
2023-02-03T13:09:59.976Z,2.50
2023-02-03T13:12:31.752Z,2.00
2023-02-03T13:15:34.971Z,2.20
2023-02-03T13:18:27.608Z,4.28
2023-02-03T13:20:54.775Z,2.10
2023-02-03T13:23:22.669Z,2.10
2023-02-03T13:26:08.627Z,2.78
2023-02-03T13:28:57.275Z,2.25
2023-02-03T13:31:36.007Z,2.17
2023-02-03T13:34:30.372Z,2.20
2023-02-03T13:37:15.484Z,3.05
2023-02-03T13:39:45.508Z,4.55
2023-02-03T13:42:18.454Z,1.73
2023-02-03T13:44:50.293Z,2.97
2023-02-03T13:47:21.627Z,2.10
2023-02-03T13:50:01.206Z,2.28
2023-02-03T13:52:45.794Z,1.70
2023-02-03T13:55:39.947Z,3.28
2023-02-03T14:00:43.942Z,2.40
2023-02-03T14:03:26.052Z,2.42
2023-02-03T14:05:57.009Z,2.35
2023-02-03T14:08:29.608Z,3.05
2023-02-03T14:11:33.295Z,2.75
2023-02-03T14:14:05.792Z,2.23
2023-02-03T14:16:37.380Z,1.80
2023-02-03T14:19:25.062Z,1.55
2023-02-03T14:21:55.169Z,2.38
2023-02-03T14:24:22.836Z,3.67
2023-02-03T14:27:02.477Z,5.43
2023-02-03T14:29:30.487Z,4.60
2023-02-03T14:32:02.709Z,3.03
2023-02-03T14:34:38.672Z,2.30
2023-02-03T14:37:23.679Z,2.90
2023-02-03T14:40:18.569Z,4.35
2023-02-03T14:43:28.289Z,2.28
2023-02-03T14:46:25.443Z,2.13
2023-02-03T14:49:13.964Z,2.22
2023-02-03T14:52:01.929Z,2.63
2023-02-03T14:54:56.129Z,2.95
2023-02-03T15:00:34.783Z,2.38
2023-02-03T15:03:10.713Z,2.08
2023-02-03T15:05:48.003Z,2.00
2023-02-03T15:08:36.769Z,2.75
2023-02-03T15:11:31.702Z,2.70
2023-02-03T15:14:34.139Z,2.30
2023-02-03T15:17:04.513Z,2.83
2023-02-03T15:19:41.363Z,2.47
2023-02-03T15:22:23.265Z,2.10
2023-02-03T15:24:53.038Z,2.13
2023-02-03T15:27:22.903Z,2.20
2023-02-03T15:29:49.644Z,2.30
2023-02-03T15:32:27.317Z,2.30
2023-02-03T15:34:57.924Z,2.75
2023-02-03T15:38:01.635Z,2.55
2023-02-03T15:40:38.207Z,2.72
2023-02-03T15:43:10.648Z,2.85
2023-02-03T15:45:46.157Z,2.47
2023-02-03T15:48:25.763Z,1.98
2023-02-03T15:50:59.222Z,2.00
2023-02-03T15:53:45.460Z,2.67
2023-02-03T15:56:21.996Z,4.00
2023-02-03T15:58:49.741Z,3.35
2023-02-03T16:01:23.124Z,3.42
2023-02-03T16:03:52.856Z,4.50
2023-02-03T16:06:36.191Z,2.83
2023-02-03T16:09:06.838Z,3.08
2023-02-03T16:11:34.700Z,2.50
2023-02-03T16:14:07.559Z,4.00
2023-02-03T16:16:36.376Z,3.13
2023-02-03T16:19:06.450Z,3.22
2023-02-03T16:21:51.403Z,3.40
2023-02-03T16:24:47.628Z,3.40
2023-02-03T16:27:31.399Z,3.58
2023-02-03T16:30:23.147Z,2.95
2023-02-03T16:33:27.070Z,3.15
2023-02-03T16:36:13.544Z,2.95
2023-02-03T16:39:07.223Z,2.83
2023-02-03T16:41:52.609Z,3.25
2023-02-03T16:44:40.166Z,4.22
2023-02-03T16:47:58.021Z,3.58
2023-02-03T16:50:43.325Z,3.50
2023-02-03T16:53:16.606Z,3.83
2023-02-03T16:55:44.003Z,3.90
2023-02-03T16:58:13.734Z,3.47
2023-02-03T17:00:42.572Z,3.60
2023-02-03T17:03:13.178Z,3.40
2023-02-03T17:05:42.435Z,4.65
2023-02-03T17:08:09.455Z,4.40
2023-02-03T17:10:38.818Z,5.72
2023-02-03T17:13:06.075Z,4.45
2023-02-03T17:15:33.290Z,4.95
2023-02-03T17:18:02.575Z,4.57
2023-02-03T17:20:29.334Z,4.32
2023-02-03T17:22:56.058Z,4.75
2023-02-03T17:25:23.052Z,4.03
2023-02-03T17:27:49.664Z,5.63
2023-02-03T17:30:17.404Z,4.90
2023-02-03T17:32:44.057Z,5.85
2023-02-03T17:35:11.201Z,4.90
2023-02-03T17:37:39.178Z,4.43
2023-02-03T17:54:04.872Z,4.70
2023-02-03T17:56:33.848Z,5.72
2023-02-03T17:59:03.532Z,4.63
2023-02-03T18:01:32.161Z,4.28
2023-02-03T18:04:01.874Z,5.68
2023-02-03T18:06:30.111Z,5.60
2023-02-03T18:09:01.993Z,5.60
2023-02-03T18:11:30.701Z,5.53
2023-02-03T18:13:57.561Z,5.55
2023-02-03T18:16:29.523Z,5.80
2023-02-03T18:18:58.133Z,5.18
2023-02-03T18:21:26.535Z,5.85
2023-02-03T18:23:58.591Z,5.22
2023-02-03T18:26:28.732Z,5.38
2023-02-03T18:28:56.525Z,5.40
2023-02-03T18:31:25.405Z,5.80
2023-02-03T18:33:52.977Z,5.80
2023-02-03T18:36:26.590Z,5.57
2023-02-03T18:38:56.380Z,5.80
2023-02-03T18:41:26.148Z,4.10
2023-02-03T18:43:53.184Z,5.43
2023-02-03T18:46:28.291Z,5.55
2023-02-03T18:48:56.383Z,5.13
2023-02-03T18:51:24.070Z,5.18
2023-02-03T18:53:51.579Z,5.25
2023-02-03T18:56:23.677Z,5.90
2023-02-03T18:58:51.198Z,6.40
2023-02-03T19:01:31.295Z,4.40
2023-02-03T19:04:03.315Z,4.88
2023-02-03T19:06:31.786Z,4.40
2023-02-03T19:08:59.394Z,5.10
2023-02-03T19:11:30.874Z,3.88
2023-02-03T19:13:58.578Z,4.97
2023-02-03T19:16:25.791Z,5.88
2023-02-03T19:18:53.672Z,4.30
2023-02-03T19:21:23.437Z,4.63
2023-02-03T19:23:51.214Z,5.50
2023-02-03T19:26:18.452Z,4.30
2023-02-03T19:28:45.963Z,5.05
2023-02-03T19:31:15.405Z,4.50
2023-02-03T19:33:43.132Z,4.43
2023-02-03T19:36:11.683Z,4.25
2023-02-03T19:38:39.124Z,4.30
2023-02-03T19:41:07.422Z,4.53
2023-02-03T19:43:34.205Z,5.07
2023-02-03T19:46:00.927Z,4.80
2023-02-03T19:48:28.170Z,4.38
2023-02-03T19:50:54.896Z,5.13
2023-02-03T19:53:21.769Z,3.90
2023-02-03T19:55:48.533Z,4.43
2023-02-03T19:58:15.503Z,4.32
2023-02-03T20:00:43.759Z,4.50
2023-02-03T20:03:10.622Z,5.55
2023-02-03T20:05:38.300Z,3.92
2023-02-03T20:08:05.782Z,5.00
2023-02-03T20:10:32.921Z,3.97
2023-02-03T20:13:00.717Z,4.85
2023-02-03T20:15:27.583Z,5.43
2023-02-03T20:17:54.382Z,5.68
2023-02-03T20:20:21.530Z,4.70
2023-02-03T20:22:48.658Z,4.97
2023-02-03T20:25:17.045Z,4.28
2023-02-03T20:27:43.740Z,4.05
2023-02-03T20:30:12.218Z,4.45
2023-02-03T20:32:39.287Z,3.10
2023-02-03T20:35:06.775Z,4.80
2023-02-03T20:37:35.923Z,3.50
2023-02-03T20:40:06.282Z,3.35
2023-02-03T20:42:34.280Z,5.50
2023-02-03T20:45:01.194Z,4.40
2023-02-03T20:47:27.816Z,4.10
2023-02-03T20:49:54.662Z,3.60
2023-02-03T20:52:21.405Z,4.68
2023-02-03T20:54:48.100Z,5.40
2023-02-03T20:57:17.755Z,4.90
2023-02-03T20:59:45.662Z,4.63
2023-02-03T21:02:22.714Z,5.07
2023-02-03T21:04:58.404Z,4.63
2023-02-03T21:07:27.758Z,4.82
2023-02-03T21:09:54.639Z,7.93
2023-02-03T21:12:21.673Z,6.47
2023-02-03T21:14:48.958Z,5.75
2023-02-03T21:17:26.708Z,5.57
2023-02-03T21:19:54.991Z,6.50
2023-02-03T21:22:26.133Z,5.78
2023-02-03T21:25:00.739Z,6.20
2023-02-03T21:27:32.600Z,6.38
2023-02-03T21:30:02.585Z,4.38
2023-02-03T21:32:40.666Z,4.32
2023-02-03T21:35:33.753Z,4.28
2023-02-03T21:38:03.892Z,4.53
2023-02-03T21:40:35.061Z,4.63
2023-02-03T21:43:03.436Z,4.28
2023-02-03T21:45:41.075Z,5.78
2023-02-03T21:48:26.640Z,4.55
2023-02-03T21:50:55.569Z,4.20
2023-02-03T21:53:26.346Z,4.50
2023-02-03T21:55:53.287Z,5.43
2023-02-03T21:58:36.178Z,4.10
2023-02-03T22:01:06.389Z,4.47
2023-02-03T22:03:40.936Z,4.95
2023-02-03T22:06:20.728Z,3.78
2023-02-03T22:08:49.677Z,5.20
2023-02-03T22:11:19.669Z,5.10
2023-02-03T22:13:47.490Z,5.60
2023-02-03T22:16:15.083Z,5.35
2023-02-03T22:18:41.701Z,4.85
2023-02-03T22:21:08.236Z,4.85
2023-02-03T22:23:34.949Z,4.50
2023-02-03T22:26:01.587Z,4.55
2023-02-03T22:28:28.170Z,5.28
2023-02-03T22:30:55.240Z,5.70
2023-02-03T22:33:21.901Z,5.10
2023-02-03T22:35:48.626Z,5.53
2023-02-03T22:38:15.573Z,4.63
2023-02-03T22:40:42.370Z,5.55
2023-02-03T22:43:09.051Z,4.90
2023-02-03T22:45:35.653Z,5.90
2023-02-03T22:48:02.265Z,4.80
2023-02-03T22:50:35.337Z,5.43
2023-02-03T22:53:04.379Z,6.32
2023-02-03T22:55:32.577Z,7.18
2023-02-03T22:57:59.511Z,5.03
2023-02-03T23:00:26.760Z,7.28
2023-02-03T23:02:53.948Z,5.78
2023-02-03T23:05:21.960Z,6.63
2023-02-03T23:07:49.726Z,4.85
2023-02-03T23:10:31.177Z,6.25
2023-02-03T23:12:59.122Z,6.00
2023-02-03T23:15:26.637Z,5.88
2023-02-03T23:17:53.252Z,7.13
2023-02-03T23:20:19.969Z,6.78
2023-02-03T23:22:47.757Z,4.88
2023-02-03T23:25:14.720Z,4.18
2023-02-03T23:27:41.641Z,7.10
2023-02-03T23:30:08.910Z,6.30
2023-02-03T23:32:35.758Z,6.35
2023-02-03T23:35:35.147Z,3.97
2023-02-03T23:38:01.866Z,4.43
2023-02-03T23:40:29.208Z,4.88
2023-02-03T23:42:56.213Z,5.00
2023-02-03T23:45:22.870Z,5.10
2023-02-03T23:47:49.626Z,5.50
2023-02-03T23:50:19.070Z,6.13
2023-02-03T23:52:47.182Z,7.57
2023-02-03T23:55:20.759Z,8.68
2023-02-03T23:57:47.973Z,9.50
